الصفحة الرئيسية
METAR-TAF:

METAR-TAF

مطار :

قاعدة البساتين الجوية

مكناس, المغرب

دائرة عرض: 33-53N, خط طول: 005-32W, ارتفاع: 576 متر

مراقبة الطقس الحالي

تاريخ ووقت الإصدار 58 دقيقة قبل الساعة 15:00UTC
ريح 8 عقدة من الغرب
درجة الحرارة 19°درجة مئوية
الرطوبة 46%
ضغط 1015 hPa
الرؤية 10 كم أو أكثر
غيوم مفككة على ارتفاع 2000 قدم

METAR: GMFM 241500Z 28008KT 9999 BKN020 19/07 Q1015 NOSIG

زمن: 16:58 (15:58 UTC)

توقعات

تاريخ ووقت الإصدار 4ساعات و 58 دقيقة قبل الساعة 11:00UTC
التوقعات صالحة من24 الساعة 12 UTC إلى 25 الساعة 18 UTC
ريح 4 عقدة من الغرب
الرؤية: 8000 متر
غيوم قليلة على ارتفاع 2000 قدم
أصبح
من 24 الساعة 16 UTC إلى 24 الساعة 22 UTC
ريح 10 عقدة من الشمال الغربي
غيوم متفرقة على ارتفاع 2000 قدم

TAF: GMFM 241100Z 2412/2518 27004KT 8000 FEW020 BECMG 2416/2422 32010KT SCT020

أرصاد الطقس والتوقعات من أكثر من 4000 مطار (تقارير الطقس للمطار METAR والتنبؤ بالطقس بالمطارTAF).

المحطات المتاحة هي النقط الصفراء والحمراء على الخريطة.

حرك المؤشر فوق النقطة لمعرفة اسم المحطة.

ثم انقر لمعرفة أرصاد وتوقعات الطقس.

لتغيير الخارطة: اضغط على الأزرار الخضراء مع رمز الصليب الأسود للتكبير. على الزر الأخضر مع شرطة للتصغير، أو على الأسهم الخضراء للخرائط المجاورة.


METAR-TAF: